Terminal Aerodrome Forecast
Issued by NWS

Home | Current Version | Previous Version | Text Only | Print | Product List | Glossary On
Versions: 1 2 3 4 5 6 7 8 9 10 11 12 13 14 15 16 17 18 19 20 21 22 23 24 25 26 27 28 29 30 31 32 33 34 35 36 37
000
FTUS45 KCYS 060614 CCA
TAFAIA
TAF COR
KAIA 060614Z 0606/0706 13008KT 6SM BR VCSH BKN008 OVC015
     FM060900 12010KT 3SM -RA BR OVC005
     FM061100 12010KT 1SM BR VCSH OVC003
     FM061500 15010KT 5SM -RA BR SCT005 OVC015=

USA.gov is the U.S. government's official web portal to all federal, state and local government web resources and services.